Time;durP1;ratioP1;P1;durP2;ratioP2;P2;SDS_P1;SDS_P2;PMS_P1;PMS_P2;Temp;Humidity;BMP_temperature;BMP_pressure;BME280_temperature;BME280_humidity;BME280_pressure;Samples;Min_cycle;Max_cycle;Signal;HPM_P1;HPM_P2
2021/05/01 00:02:41;;;;;;;2.30;1.30;;;;;;;;;;6897748;28;20026;-79
2021/05/01 00:06:02;;;;;;;2.42;1.63;;;;;;;;;;6898124;28;21453;-79
2021/05/01 00:09:22;;;;;;;1.80;1.63;;;;;;;;;;6906556;28;20044;-79
2021/05/01 00:12:42;;;;;;;3.17;1.52;;;;;;;;;;6921694;28;20042;-79
2021/05/01 00:16:04;;;;;;;2.58;1.50;;;;;;;;;;6922595;28;20029;-79
2021/05/01 00:19:24;;;;;;;2.65;1.45;;;;;;;;;;6911550;28;20026;-79
2021/05/01 00:22:45;;;;;;;2.00;1.67;;;;;;;;;;6897943;28;20064;-79
2021/05/01 00:26:05;;;;;;;1.67;1.30;;;;;;;;;;6891973;28;20042;-79
2021/05/01 00:29:25;;;;;;;2.03;1.67;;;;;;;;;;6896909;28;20069;-79
2021/05/01 00:32:46;;;;;;;1.60;1.48;;;;;;;;;;6920486;28;20041;-79
2021/05/01 00:36:06;;;;;;;2.42;1.55;;;;;;;;;;6901392;28;20038;-79
2021/05/01 00:39:27;;;;;;;1.63;1.38;;;;;;;;;;6905614;28;20068;-80
2021/05/01 00:42:47;;;;;;;2.50;1.35;;;;;;;;;;6901722;28;20038;-79
2021/05/01 00:46:09;;;;;;;3.15;1.30;;;;;;;;;;6897116;28;20062;-79
2021/05/01 00:49:29;;;;;;;1.30;1.20;;;;;;;;;;6904105;28;20033;-80
2021/05/01 00:52:50;;;;;;;3.15;1.67;;;;;;;;;;6916585;28;20042;-79
2021/05/01 00:56:10;;;;;;;2.38;1.42;;;;;;;;;;6907001;28;20025;-79
2021/05/01 00:59:30;;;;;;;2.15;1.40;;;;;;;;;;6897495;28;20027;-79
2021/05/01 01:02:51;;;;;;;3.03;1.40;;;;;;;;;;6908533;28;20045;-79
2021/05/01 01:06:13;;;;;;;3.08;1.50;;;;;;;;;;6917877;28;20108;-79
2021/05/01 01:09:34;;;;;;;2.53;1.65;;;;;;;;;;6899728;28;20080;-78
2021/05/01 01:12:54;;;;;;;2.22;1.50;;;;;;;;;;6919938;28;20026;-79
2021/05/01 01:16:15;;;;;;;2.13;1.60;;;;;;;;;;6896054;28;20118;-79
2021/05/01 01:19:37;;;;;;;1.65;1.50;;;;;;;;;;6897789;28;20120;-80
2021/05/01 01:22:58;;;;;;;2.30;1.50;;;;;;;;;;6904774;28;20026;-79
2021/05/01 01:26:18;;;;;;;2.80;1.60;;;;;;;;;;6892092;28;20097;-79
2021/05/01 01:29:40;;;;;;;1.98;1.33;;;;;;;;;;6921440;28;20033;-79
2021/05/01 01:33:04;;;;;;;1.80;1.50;;;;;;;;;;6910834;28;20042;-80
2021/05/01 01:36:24;;;;;;;1.45;1.35;;;;;;;;;;6902250;28;20026;-78
2021/05/01 01:39:45;;;;;;;2.45;1.60;;;;;;;;;;6905819;28;20435;-80
2021/05/01 01:43:05;;;;;;;5.68;1.85;;;;;;;;;;6912152;28;20499;-80
2021/05/01 01:46:25;;;;;;;4.53;1.60;;;;;;;;;;6915295;28;20029;-79
2021/05/01 01:49:46;;;;;;;6.20;2.30;;;;;;;;;;6895503;28;20038;-80
2021/05/01 01:53:06;;;;;;;4.85;1.58;;;;;;;;;;6918723;28;20512;-80
2021/05/01 01:56:27;;;;;;;8.23;2.00;;;;;;;;;;6918164;28;20039;-80
2021/05/01 01:59:47;;;;;;;6.25;1.85;;;;;;;;;;6916990;28;20065;-79
2021/05/01 02:03:08;;;;;;;5.10;2.13;;;;;;;;;;6906565;28;20046;-80
2021/05/01 02:06:28;;;;;;;7.47;2.25;;;;;;;;;;6915186;28;20030;-80
2021/05/01 02:09:48;;;;;;;6.10;1.75;;;;;;;;;;6915418;28;20064;-80
2021/05/01 02:13:09;;;;;;;7.18;2.35;;;;;;;;;;6903075;28;20021;-79
2021/05/01 02:16:30;;;;;;;6.60;2.25;;;;;;;;;;6895053;28;20045;-80
2021/05/01 02:19:51;;;;;;;6.20;2.10;;;;;;;;;;6894409;28;20110;-80
2021/05/01 02:23:11;;;;;;;6.38;2.17;;;;;;;;;;6894955;28;20032;-80
2021/05/01 02:26:31;;;;;;;5.22;2.17;;;;;;;;;;6894617;28;20081;-80
2021/05/01 02:29:52;;;;;;;3.28;1.60;;;;;;;;;;6894907;28;20034;-78
2021/05/01 02:33:13;;;;;;;9.07;2.22;;;;;;;;;;6894796;28;20037;-79
2021/05/01 02:36:34;;;;;;;9.20;2.15;;;;;;;;;;6895005;28;20038;-80
2021/05/01 02:39:54;;;;;;;3.30;1.80;;;;;;;;;;6880906;28;20071;-79
2021/05/01 02:43:14;;;;;;;9.25;2.03;;;;;;;;;;6894649;28;20026;-79
2021/05/01 02:46:35;;;;;;;6.88;1.63;;;;;;;;;;6894661;28;20030;-79
2021/05/01 02:49:55;;;;;;;6.97;1.77;;;;;;;;;;6894505;28;20510;-80
2021/05/01 02:53:16;;;;;;;5.35;2.03;;;;;;;;;;6894921;28;20089;-79
2021/05/01 02:56:36;;;;;;;8.93;1.92;;;;;;;;;;6894483;28;20503;-79
2021/05/01 03:00:02;;;;;;;3.55;2.03;;;;;;;;;;6893975;28;20034;-79
2021/05/01 03:03:23;;;;;;;3.08;1.77;;;;;;;;;;6894896;28;20037;-79
2021/05/01 03:06:43;;;;;;;3.63;1.65;;;;;;;;;;6898549;28;20034;-80
2021/05/01 03:10:05;;;;;;;2.88;1.63;;;;;;;;;;6899218;28;20058;-80
2021/05/01 03:13:26;;;;;;;5.80;2.08;;;;;;;;;;6898966;28;20449;-79
2021/05/01 03:16:46;;;;;;;5.25;1.58;;;;;;;;;;6899172;28;20085;-80
2021/05/01 03:20:08;;;;;;;8.25;2.05;;;;;;;;;;6898934;28;20034;-79
2021/05/01 03:23:28;;;;;;;5.38;1.73;;;;;;;;;;6899540;28;20034;-80
2021/05/01 03:26:49;;;;;;;5.00;1.83;;;;;;;;;;6898777;28;20112;-79
2021/05/01 03:30:12;;;;;;;4.05;2.17;;;;;;;;;;6898609;28;20129;-80
2021/05/01 03:33:33;;;;;;;4.63;1.42;;;;;;;;;;6898725;28;20061;-79
2021/05/01 03:36:53;;;;;;;2.85;1.40;;;;;;;;;;6899268;28;20057;-79
2021/05/01 03:40:14;;;;;;;2.78;1.25;;;;;;;;;;6898310;28;20026;-79
2021/05/01 03:43:34;;;;;;;2.17;1.45;;;;;;;;;;6898309;28;20121;-78
2021/05/01 03:46:56;;;;;;;5.78;1.70;;;;;;;;;;6898580;28;20488;-79
2021/05/01 03:50:16;;;;;;;5.22;1.60;;;;;;;;;;6898436;28;20451;-80
2021/05/01 03:53:36;;;;;;;2.65;1.50;;;;;;;;;;6897962;28;20503;-80
2021/05/01 03:56:57;;;;;;;2.75;1.38;;;;;;;;;;6898062;28;20465;-79
2021/05/01 04:00:18;;;;;;;4.63;1.50;;;;;;;;;;6897909;28;20027;-79
2021/05/01 04:03:39;;;;;;;2.90;1.40;;;;;;;;;;6897707;28;20113;-80
2021/05/01 04:06:59;;;;;;;2.58;1.35;;;;;;;;;;6898172;28;20034;-80
2021/05/01 04:10:20;;;;;;;2.60;1.33;;;;;;;;;;6897590;28;20484;-80
2021/05/01 04:13:58;;;;;;;4.07;1.38;;;;;;;;;;6897343;28;20032;-78
2021/05/01 04:17:18;;;;;;;3.33;1.35;;;;;;;;;;6897339;28;20038;-79
2021/05/01 04:20:40;;;;;;;1.75;1.40;;;;;;;;;;6897905;28;20136;-79
2021/05/01 04:24:00;;;;;;;2.22;1.58;;;;;;;;;;6896841;28;20463;-80
2021/05/01 04:27:21;;;;;;;3.40;1.52;;;;;;;;;;6897216;28;20034;-79
2021/05/01 04:30:41;;;;;;;3.63;1.58;;;;;;;;;;6896940;28;20034;-80
2021/05/01 04:34:02;;;;;;;3.90;1.35;;;;;;;;;;6891500;28;20117;-79
2021/05/01 04:37:22;;;;;;;2.58;1.15;;;;;;;;;;6910098;28;20026;-80
2021/05/01 04:40:43;;;;;;;4.03;1.10;;;;;;;;;;6897865;28;20109;-80
2021/05/01 04:44:04;;;;;;;4.68;1.10;;;;;;;;;;6917565;28;20105;-80
2021/05/01 04:47:25;;;;;;;1.92;1.52;;;;;;;;;;6906484;28;20091;-80
2021/05/01 04:50:50;;;;;;;2.22;1.33;;;;;;;;;;6904827;28;20175;-79
2021/05/01 04:54:10;;;;;;;2.20;1.38;;;;;;;;;;6916624;28;20515;-80
2021/05/01 04:57:31;;;;;;;2.00;1.40;;;;;;;;;;6914875;28;20030;-79
2021/05/01 05:00:51;;;;;;;3.25;1.70;;;;;;;;;;6916951;28;20057;-81
2021/05/01 05:04:12;;;;;;;1.77;1.38;;;;;;;;;;6896769;28;20053;-81
2021/05/01 05:07:32;;;;;;;2.30;1.20;;;;;;;;;;6912630;28;20038;-81
2021/05/01 05:10:53;;;;;;;4.20;1.17;;;;;;;;;;6905926;28;20034;-80
2021/05/01 05:14:13;;;;;;;1.85;1.17;;;;;;;;;;6896273;28;20026;-80
2021/05/01 05:17:34;;;;;;;2.60;1.20;;;;;;;;;;6911617;28;20065;-80
2021/05/01 05:20:54;;;;;;;3.85;1.20;;;;;;;;;;6907720;28;20031;-80
2021/05/01 05:24:14;;;;;;;2.17;1.40;;;;;;;;;;6896242;28;20030;-81
2021/05/01 05:27:35;;;;;;;2.25;1.42;;;;;;;;;;6894975;28;20065;-81
2021/05/01 05:30:55;;;;;;;2.03;1.20;;;;;;;;;;6896389;28;20067;-81
2021/05/01 05:34:16;;;;;;;2.78;1.38;;;;;;;;;;6896106;28;20469;-81
2021/05/01 05:37:36;;;;;;;2.42;1.30;;;;;;;;;;6895034;28;20062;-81
2021/05/01 05:40:57;;;;;;;4.18;1.35;;;;;;;;;;6895797;28;20479;-82
2021/05/01 05:44:17;;;;;;;3.97;1.48;;;;;;;;;;6896516;28;20022;-81
2021/05/01 05:47:38;;;;;;;5.30;1.27;;;;;;;;;;6895486;28;20062;-80
2021/05/01 05:50:58;;;;;;;2.50;1.30;;;;;;;;;;6895826;28;20026;-81
2021/05/01 05:54:18;;;;;;;5.78;1.67;;;;;;;;;;6895237;28;20041;-81
2021/05/01 05:57:41;;;;;;;2.10;1.20;;;;;;;;;;6894310;28;20105;-81
2021/05/01 06:01:03;;;;;;;3.63;1.65;;;;;;;;;;6910064;28;20029;-81
2021/05/01 06:04:29;;;;;;;1.92;1.50;;;;;;;;;;6904100;28;20116;-82
2021/05/01 06:07:56;;;;;;;2.28;1.13;;;;;;;;;;6889212;28;20030;-82
2021/05/01 06:11:20;;;;;;;2.92;1.13;;;;;;;;;;6911448;28;20444;-82
2021/05/01 06:14:42;;;;;;;2.20;1.65;;;;;;;;;;6913303;28;20476;-79
2021/05/01 06:18:03;;;;;;;3.28;1.42;;;;;;;;;;6897194;28;20084;-80
2021/05/01 06:22:04;;;;;;;1.38;1.00;;;;;;;;;;6887618;28;20030;-82
2021/05/01 06:25:27;;;;;;;1.88;1.30;;;;;;;;;;6886626;28;20485;-80
2021/05/01 06:28:50;;;;;;;2.42;1.30;;;;;;;;;;6894720;28;20022;-80
2021/05/01 06:32:14;;;;;;;1.05;0.98;;;;;;;;;;6893937;28;20022;-80
2021/05/01 06:35:43;;;;;;;1.25;1.15;;;;;;;;;;6894387;28;20045;-80
2021/05/01 06:39:06;;;;;;;3.83;1.20;;;;;;;;;;6894507;28;20052;-80
2021/05/01 06:42:46;;;;;;;2.30;1.40;;;;;;;;;;6900219;28;20022;-78
2021/05/01 06:46:08;;;;;;;1.75;1.33;;;;;;;;;;6898132;28;20034;-80
2021/05/01 06:49:31;;;;;;;1.35;1.13;;;;;;;;;;6897612;28;20380;-80
2021/05/01 06:52:52;;;;;;;1.23;1.00;;;;;;;;;;6927077;23;20085;-76
2021/05/01 06:56:13;;;;;;;1.20;0.98;;;;;;;;;;6912145;28;20053;-77
2021/05/01 06:59:34;;;;;;;2.42;1.20;;;;;;;;;;6921084;28;20034;-75
2021/05/01 07:03:05;;;;;;;5.28;1.25;;;;;;;;;;6921929;28;20022;-78
2021/05/01 07:06:26;;;;;;;3.78;1.45;;;;;;;;;;6912493;28;20087;-75
2021/05/01 07:09:47;;;;;;;1.45;1.10;;;;;;;;;;6922792;28;20037;-77
2021/05/01 07:13:18;;;;;;;4.05;1.20;;;;;;;;;;6927935;28;20426;-78
2021/05/01 07:16:40;;;;;;;5.47;1.20;;;;;;;;;;6935126;28;20499;-77
2021/05/01 07:20:01;;;;;;;3.85;1.35;;;;;;;;;;6936511;28;20025;-76
2021/05/01 07:23:26;;;;;;;1.85;1.10;;;;;;;;;;6935625;28;20038;-76
2021/05/01 07:26:46;;;;;;;9.80;1.60;;;;;;;;;;6921645;28;20387;-76
2021/05/01 07:30:17;;;;;;;21.23;1.65;;;;;;;;;;6916146;28;20476;-77
2021/05/01 07:33:57;;;;;;;9.68;1.73;;;;;;;;;;6924222;28;20046;-77
2021/05/01 07:37:19;;;;;;;11.65;1.80;;;;;;;;;;6920711;28;20045;-74
2021/05/01 07:40:40;;;;;;;16.33;3.35;;;;;;;;;;6900893;28;20030;-75
2021/05/01 07:44:01;;;;;;;18.70;2.60;;;;;;;;;;6918166;28;20099;-77
2021/05/01 07:47:23;;;;;;;19.27;3.13;;;;;;;;;;6893149;28;20032;-75
2021/05/01 07:50:46;;;;;;;16.77;2.97;;;;;;;;;;6913838;28;20037;-75
2021/05/01 07:54:07;;;;;;;12.07;2.95;;;;;;;;;;6914098;28;20062;-75
2021/05/01 07:57:27;;;;;;;9.52;2.63;;;;;;;;;;6918361;28;20135;-75
2021/05/01 08:00:48;;;;;;;17.70;2.70;;;;;;;;;;6923348;28;20034;-76
2021/05/01 08:04:10;;;;;;;5.88;2.20;;;;;;;;;;6916687;28;20030;-75
2021/05/01 08:07:30;;;;;;;5.18;2.22;;;;;;;;;;6920902;28;20040;-74
2021/05/01 08:10:50;;;;;;;10.18;2.53;;;;;;;;;;6916832;28;20034;-74
2021/05/01 08:14:11;;;;;;;12.35;2.58;;;;;;;;;;6930278;28;20037;-74
2021/05/01 08:17:33;;;;;;;5.55;2.20;;;;;;;;;;6923066;28;20048;-73
2021/05/01 08:20:53;;;;;;;7.95;1.80;;;;;;;;;;6915236;28;20042;-74
2021/05/01 08:24:16;;;;;;;8.73;2.53;;;;;;;;;;6903517;28;20105;-75
2021/05/01 08:27:37;;;;;;;10.43;2.17;;;;;;;;;;6909448;28;20040;-74
2021/05/01 08:30:58;;;;;;;7.32;2.30;;;;;;;;;;6918132;28;20026;-74
2021/05/01 08:34:19;;;;;;;14.18;3.33;;;;;;;;;;6922297;28;20037;-75
2021/05/01 08:38:18;;;;;;;13.60;3.97;;;;;;;;;;6922459;28;20042;-74
2021/05/01 08:41:49;;;;;;;14.93;3.75;;;;;;;;;;6913204;28;20496;-74
2021/05/01 08:45:44;;;;;;;9.13;3.53;;;;;;;;;;6923062;28;20057;-74
2021/05/01 08:49:08;;;;;;;11.82;2.83;;;;;;;;;;6918968;28;20032;-74
2021/05/01 08:52:29;;;;;;;9.98;2.95;;;;;;;;;;6923050;28;20452;-74
2021/05/01 08:55:49;;;;;;;8.15;3.20;;;;;;;;;;6925204;28;20025;-74
2021/05/01 08:59:10;;;;;;;7.05;3.05;;;;;;;;;;6911293;28;20037;-74
2021/05/01 09:02:32;;;;;;;8.43;3.10;;;;;;;;;;6923039;28;20065;-74
2021/05/01 09:05:55;;;;;;;6.93;3.05;;;;;;;;;;6927816;28;20538;-74
2021/05/01 09:09:16;;;;;;;13.15;3.03;;;;;;;;;;6913865;28;20106;-74
2021/05/01 09:12:46;;;;;;;5.88;2.50;;;;;;;;;;6919160;28;20069;-74
2021/05/01 09:16:08;;;;;;;5.38;2.67;;;;;;;;;;6920130;28;20092;-74
2021/05/01 09:19:34;;;;;;;10.27;2.88;;;;;;;;;;6932538;28;20120;-74
2021/05/01 09:23:01;;;;;;;13.50;3.92;;;;;;;;;;6932809;28;20040;-74
2021/05/01 09:26:42;;;;;;;8.63;3.35;;;;;;;;;;6919867;28;20034;-73
2021/05/01 09:30:13;;;;;;;9.48;3.20;;;;;;;;;;6919016;28;20038;-74
2021/05/01 09:33:43;;;;;;;6.55;2.63;;;;;;;;;;6919281;28;20096;-74
2021/05/01 09:37:56;;;;;;;11.43;3.20;;;;;;;;;;6882831;28;20510;-74
2021/05/01 09:41:25;;;;;;;11.23;3.45;;;;;;;;;;6889720;28;20350;-75
2021/05/01 09:45:21;;;;;;;14.95;3.05;;;;;;;;;;6890880;28;20102;-74
2021/05/01 09:49:23;;;;;;;14.00;3.15;;;;;;;;;;6891158;28;20056;-74
2021/05/01 12:28:36;;;;;;;8.55;2.80;;;;;;;;;;7087898;23;20514;-74
2021/05/01 12:32:05;;;;;;;9.95;2.47;;;;;;;;;;6922276;28;20030;-73
2021/05/01 12:35:26;;;;;;;;;;;;;;;;;;6909987;28;20040;-73
2021/05/01 12:38:49;;;;;;;6.87;2.57;;;;;;;;;;6912835;28;19913;-73
2021/05/01 12:42:26;;;;;;;5.45;2.40;;;;;;;;;;6912903;28;20388;-73
2021/05/01 12:45:47;;;;;;;14.50;2.58;;;;;;;;;;6925044;28;20479;-75
2021/05/01 12:49:18;;;;;;;8.02;2.80;;;;;;;;;;6919392;28;20034;-74
2021/05/01 12:52:42;;;;;;;13.02;3.88;;;;;;;;;;6921060;28;20037;-73
2021/05/01 12:56:33;;;;;;;19.58;4.38;;;;;;;;;;6910744;28;20034;-74
2021/05/01 12:59:53;;;;;;;11.55;3.63;;;;;;;;;;6916137;28;20038;-74
2021/05/01 13:03:16;;;;;;;12.13;3.63;;;;;;;;;;6912593;28;20053;-74
2021/05/01 13:06:37;;;;;;;17.25;4.30;;;;;;;;;;6909864;28;20058;-73
2021/05/01 13:09:58;;;;;;;13.52;3.78;;;;;;;;;;6917790;28;20037;-74
2021/05/01 13:13:31;;;;;;;11.88;4.07;;;;;;;;;;6918008;28;20034;-75
2021/05/01 13:17:02;;;;;;;11.40;3.35;;;;;;;;;;6923993;28;20026;-76
2021/05/01 13:20:22;;;;;;;12.15;3.40;;;;;;;;;;6918428;28;20034;-74
2021/05/01 13:23:44;;;;;;;10.05;3.50;;;;;;;;;;6918261;28;20114;-74
2021/05/01 13:27:06;;;;;;;9.75;3.58;;;;;;;;;;6917283;28;20044;-74
2021/05/01 13:30:29;;;;;;;9.68;3.35;;;;;;;;;;6925975;28;20064;-75
2021/05/01 13:33:49;;;;;;;8.75;3.28;;;;;;;;;;6910941;28;20030;-74
2021/05/01 13:37:10;;;;;;;6.70;2.88;;;;;;;;;;6918217;28;20034;-74
2021/05/01 13:40:35;;;;;;;9.35;3.53;;;;;;;;;;6908534;28;20121;-74
2021/05/01 13:43:56;;;;;;;14.25;3.60;;;;;;;;;;6916907;28;20025;-74
2021/05/01 13:47:34;;;;;;;7.55;3.33;;;;;;;;;;6925925;28;20105;-74
2021/05/01 13:50:54;;;;;;;10.75;3.70;;;;;;;;;;6919340;28;20029;-74
2021/05/01 13:54:15;;;;;;;8.70;3.28;;;;;;;;;;6920217;28;20072;-77
2021/05/01 13:57:35;;;;;;;10.57;3.65;;;;;;;;;;6919920;28;20045;-76
2021/05/01 14:00:58;;;;;;;8.48;3.35;;;;;;;;;;6919810;28;20046;-74
2021/05/01 14:04:35;;;;;;;7.43;3.17;;;;;;;;;;6919461;28;20046;-76
2021/05/01 14:07:58;;;;;;;6.20;2.70;;;;;;;;;;6912708;28;20038;-75
2021/05/01 14:11:18;;;;;;;14.48;3.35;;;;;;;;;;6919843;28;20037;-75
2021/05/01 14:14:39;;;;;;;33.10;3.63;;;;;;;;;;6935110;28;20070;-75
2021/05/01 14:18:08;;;;;;;3.78;2.47;;;;;;;;;;6914290;28;20085;-75
2021/05/01 14:21:28;;;;;;;10.60;3.10;;;;;;;;;;6911409;28;20034;-75
2021/05/01 14:24:49;;;;;;;9.27;2.70;;;;;;;;;;6904088;28;20038;-75
2021/05/01 14:28:21;;;;;;;7.97;2.70;;;;;;;;;;6917699;28;20487;-75
2021/05/01 14:31:42;;;;;;;8.48;3.20;;;;;;;;;;6910082;28;20476;-75
2021/05/01 14:35:03;;;;;;;7.00;3.05;;;;;;;;;;6902557;28;20053;-76
2021/05/01 14:38:26;;;;;;;12.35;3.15;;;;;;;;;;6918047;28;20029;-74
2021/05/01 14:41:46;;;;;;;17.20;3.03;;;;;;;;;;6901569;28;20022;-73
2021/05/01 14:45:08;;;;;;;10.27;2.83;;;;;;;;;;6912982;28;20359;-73
2021/05/01 14:48:29;;;;;;;4.75;2.83;;;;;;;;;;6910576;28;20081;-74
2021/05/01 14:51:56;;;;;;;5.03;2.42;;;;;;;;;;6918487;28;20026;-73
2021/05/01 14:55:25;;;;;;;14.90;3.63;;;;;;;;;;6917220;28;20033;-73
2021/05/01 14:58:51;;;;;;;5.38;2.78;;;;;;;;;;6903906;28;20034;-73
2021/05/01 15:02:16;;;;;;;6.63;2.80;;;;;;;;;;6907293;28;20037;-73
2021/05/01 15:05:37;;;;;;;4.85;2.78;;;;;;;;;;6909392;28;20038;-73
2021/05/01 15:08:57;;;;;;;9.60;2.97;;;;;;;;;;6914454;28;20036;-73
2021/05/01 15:12:19;;;;;;;9.05;3.30;;;;;;;;;;6922218;28;20029;-73
2021/05/01 15:15:45;;;;;;;6.57;2.70;;;;;;;;;;6920393;28;20041;-73
2021/05/01 15:19:14;;;;;;;9.23;3.42;;;;;;;;;;6906360;28;20026;-73
2021/05/01 15:22:35;;;;;;;6.25;3.08;;;;;;;;;;6910972;28;20033;-74
2021/05/01 15:25:57;;;;;;;10.38;2.72;;;;;;;;;;6911534;28;20030;-73
2021/05/01 15:29:18;;;;;;;4.68;2.78;;;;;;;;;;6910772;28;20076;-73
2021/05/01 15:32:38;;;;;;;5.10;2.60;;;;;;;;;;6926249;28;20022;-74
2021/05/01 15:36:02;;;;;;;3.47;2.10;;;;;;;;;;6926170;28;20049;-73
2021/05/01 15:39:23;;;;;;;5.50;2.58;;;;;;;;;;6920960;28;20036;-73
2021/05/01 15:42:44;;;;;;;9.63;2.97;;;;;;;;;;6902877;28;20035;-73
2021/05/01 15:46:05;;;;;;;3.67;2.17;;;;;;;;;;6915594;28;20033;-73
2021/05/01 15:49:26;;;;;;;4.68;2.30;;;;;;;;;;6925924;28;20081;-73
2021/05/01 15:52:47;;;;;;;6.00;2.33;;;;;;;;;;6915176;28;20034;-73
2021/05/01 15:56:07;;;;;;;4.25;2.33;;;;;;;;;;6900676;28;20078;-74
2021/05/01 15:59:27;;;;;;;5.93;2.95;;;;;;;;;;6913602;28;20030;-74
2021/05/01 16:02:48;;;;;;;5.22;2.60;;;;;;;;;;6914333;28;20077;-74
2021/05/01 16:06:08;;;;;;;9.52;2.65;;;;;;;;;;6919571;28;20045;-74
2021/05/01 16:09:30;;;;;;;6.47;2.58;;;;;;;;;;6915126;28;20117;-74
2021/05/01 16:12:51;;;;;;;3.80;1.70;;;;;;;;;;6913937;28;20124;-73
2021/05/01 16:16:12;;;;;;;6.63;2.40;;;;;;;;;;6926678;28;20032;-73
2021/05/01 16:19:32;;;;;;;4.88;2.53;;;;;;;;;;6925846;28;20025;-74
2021/05/01 16:22:55;;;;;;;3.13;1.95;;;;;;;;;;6924291;28;20109;-73
2021/05/01 16:26:15;;;;;;;6.30;2.30;;;;;;;;;;6920024;28;20049;-74
2021/05/01 16:29:36;;;;;;;4.55;2.65;;;;;;;;;;6937326;28;20049;-74
2021/05/01 16:32:57;;;;;;;4.03;2.13;;;;;;;;;;6924256;28;20034;-73
2021/05/01 16:36:17;;;;;;;4.57;2.50;;;;;;;;;;6920636;28;20036;-73
2021/05/01 16:39:37;;;;;;;3.45;2.25;;;;;;;;;;6912081;28;20057;-73
2021/05/01 16:42:58;;;;;;;4.07;2.05;;;;;;;;;;6920797;28;20033;-73
2021/05/01 16:46:18;;;;;;;7.53;2.78;;;;;;;;;;6917048;28;20471;-73
2021/05/01 16:49:39;;;;;;;4.93;2.45;;;;;;;;;;6921217;28;20033;-73
2021/05/01 16:53:00;;;;;;;6.50;2.30;;;;;;;;;;6934588;28;20041;-73
2021/05/01 16:56:21;;;;;;;2.22;1.73;;;;;;;;;;6922058;28;20038;-73
2021/05/01 16:59:41;;;;;;;4.88;2.50;;;;;;;;;;6913834;28;20066;-73
2021/05/01 17:03:02;;;;;;;3.38;1.92;;;;;;;;;;6919238;28;20084;-73
2021/05/01 17:06:23;;;;;;;5.50;2.65;;;;;;;;;;6911522;28;20041;-73
2021/05/01 17:09:43;;;;;;;5.43;2.10;;;;;;;;;;6920290;28;20129;-73
2021/05/01 17:13:03;;;;;;;5.63;2.67;;;;;;;;;;6919756;28;20387;-74
2021/05/01 17:16:24;;;;;;;3.55;2.25;;;;;;;;;;6898255;28;20105;-73
2021/05/01 17:19:44;;;;;;;6.82;2.50;;;;;;;;;;6907204;28;20088;-73
2021/05/01 17:23:06;;;;;;;3.90;2.10;;;;;;;;;;6914453;28;20054;-73
2021/05/01 17:26:26;;;;;;;4.90;2.30;;;;;;;;;;6919166;28;20087;-73
2021/05/01 17:29:47;;;;;;;5.00;2.17;;;;;;;;;;6920010;28;20046;-74
2021/05/01 17:33:07;;;;;;;2.38;1.83;;;;;;;;;;6902453;28;20121;-73
2021/05/01 17:36:28;;;;;;;2.30;1.92;;;;;;;;;;6915667;28;20371;-73
2021/05/01 17:39:48;;;;;;;3.72;1.85;;;;;;;;;;6913588;28;20048;-73
2021/05/01 17:43:08;;;;;;;6.32;2.40;;;;;;;;;;6918574;28;20057;-73
2021/05/01 17:46:29;;;;;;;6.43;2.20;;;;;;;;;;6917909;28;20025;-74
2021/05/01 17:49:49;;;;;;;4.68;1.77;;;;;;;;;;6919934;28;20034;-73
2021/05/01 17:53:10;;;;;;;4.88;1.85;;;;;;;;;;6918091;28;20054;-74
2021/05/01 17:56:31;;;;;;;3.33;2.05;;;;;;;;;;6918695;28;20116;-73
2021/05/01 17:59:51;;;;;;;5.07;2.53;;;;;;;;;;6919168;28;20117;-74
2021/05/01 18:03:13;;;;;;;6.15;2.70;;;;;;;;;;6918963;28;20026;-73
2021/05/01 18:06:34;;;;;;;4.97;2.50;;;;;;;;;;6917623;28;20038;-73
2021/05/01 18:09:54;;;;;;;3.67;2.03;;;;;;;;;;6921426;28;20041;-73
2021/05/01 18:13:14;;;;;;;7.18;2.80;;;;;;;;;;6918857;28;20060;-73
2021/05/01 18:16:35;;;;;;;3.13;2.05;;;;;;;;;;6918601;28;20030;-73
2021/05/01 18:19:57;;;;;;;5.22;2.28;;;;;;;;;;6916378;28;20463;-73
2021/05/01 18:23:17;;;;;;;4.15;2.20;;;;;;;;;;6918055;28;20029;-73
2021/05/01 18:26:39;;;;;;;9.60;2.53;;;;;;;;;;6913253;28;20120;-74
2021/05/01 18:30:05;;;;;;;2.22;1.75;;;;;;;;;;6914691;28;20054;-74
2021/05/01 18:33:26;;;;;;;2.55;1.90;;;;;;;;;;6918617;28;20026;-74
2021/05/01 18:36:46;;;;;;;5.60;2.55;;;;;;;;;;6917674;28;20034;-74
2021/05/01 18:40:08;;;;;;;7.78;2.70;;;;;;;;;;6912340;28;20475;-73
2021/05/01 18:43:30;;;;;;;12.43;3.10;;;;;;;;;;6899764;28;20430;-72
2021/05/01 18:46:50;;;;;;;8.27;3.00;;;;;;;;;;6910598;28;20034;-73
2021/05/01 18:50:14;;;;;;;14.45;3.47;;;;;;;;;;6910076;28;20062;-73
2021/05/01 18:53:34;;;;;;;8.23;3.03;;;;;;;;;;6914150;28;20395;-73
2021/05/01 18:56:55;;;;;;;14.63;3.20;;;;;;;;;;6909516;28;20022;-74
2021/05/01 19:00:17;;;;;;;6.50;2.72;;;;;;;;;;6923568;28;20037;-76
2021/05/01 19:03:37;;;;;;;12.57;3.53;;;;;;;;;;6918416;28;20026;-76
2021/05/01 19:06:58;;;;;;;13.85;3.33;;;;;;;;;;6934044;28;20073;-76
2021/05/01 19:10:19;;;;;;;13.77;3.35;;;;;;;;;;6911477;28;20029;-72
2021/05/01 19:13:42;;;;;;;14.30;3.33;;;;;;;;;;6913233;28;20040;-74
2021/05/01 19:17:03;;;;;;;12.38;4.00;;;;;;;;;;6914270;28;20033;-73
2021/05/01 19:20:24;;;;;;;12.57;3.47;;;;;;;;;;6917545;28;20116;-75
2021/05/01 19:23:44;;;;;;;12.02;3.53;;;;;;;;;;6916255;28;20026;-73
2021/05/01 19:27:05;;;;;;;8.02;2.72;;;;;;;;;;6920107;28;20030;-74
2021/05/01 19:30:25;;;;;;;11.73;3.17;;;;;;;;;;6910222;28;20505;-73
2021/05/01 19:33:46;;;;;;;10.40;3.40;;;;;;;;;;6915042;28;20034;-74
2021/05/01 19:37:06;;;;;;;26.98;3.85;;;;;;;;;;6917516;28;20033;-74
2021/05/01 19:40:27;;;;;;;13.57;3.42;;;;;;;;;;6908740;28;20117;-74
2021/05/01 19:43:49;;;;;;;15.48;3.17;;;;;;;;;;6930670;28;20048;-73
2021/05/01 19:47:09;;;;;;;16.08;3.22;;;;;;;;;;6921132;28;20367;-73
2021/05/01 19:50:30;;;;;;;11.15;3.22;;;;;;;;;;6930094;28;20460;-74
2021/05/01 19:53:50;;;;;;;8.30;3.03;;;;;;;;;;6929978;28;20443;-73
2021/05/01 19:57:11;;;;;;;7.85;3.08;;;;;;;;;;6921639;28;20042;-74
2021/05/01 20:00:31;;;;;;;11.85;2.97;;;;;;;;;;6937582;28;20088;-73
2021/05/01 20:03:51;;;;;;;14.43;3.17;;;;;;;;;;6916486;28;20033;-74
2021/05/01 20:07:12;;;;;;;14.65;3.47;;;;;;;;;;6926220;28;20081;-73
2021/05/01 20:10:33;;;;;;;11.77;3.20;;;;;;;;;;6921285;28;20384;-73
2021/05/01 20:13:54;;;;;;;12.02;3.33;;;;;;;;;;6920623;28;20030;-73
2021/05/01 20:17:14;;;;;;;13.30;3.00;;;;;;;;;;6923945;28;20088;-73
2021/05/01 20:20:34;;;;;;;12.25;2.40;;;;;;;;;;6920677;28;20367;-73
2021/05/01 20:23:55;;;;;;;18.25;3.70;;;;;;;;;;6920741;28;20375;-73
2021/05/01 20:27:15;;;;;;;11.60;2.88;;;;;;;;;;6920456;28;20408;-73
2021/05/01 20:30:37;;;;;;;11.63;3.03;;;;;;;;;;6920674;28;20052;-73
2021/05/01 20:33:57;;;;;;;11.15;3.25;;;;;;;;;;6920450;28;20079;-73
2021/05/01 20:37:17;;;;;;;10.52;2.92;;;;;;;;;;6929231;28;20030;-74
2021/05/01 20:40:38;;;;;;;8.07;2.50;;;;;;;;;;6916208;28;20045;-73
2021/05/01 20:43:58;;;;;;;10.82;3.20;;;;;;;;;;6911211;28;20026;-74
2021/05/01 20:47:19;;;;;;;6.97;2.33;;;;;;;;;;6916192;28;20112;-73
2021/05/01 20:50:40;;;;;;;8.95;2.70;;;;;;;;;;6919730;28;20038;-73
2021/05/01 20:54:00;;;;;;;11.15;2.85;;;;;;;;;;6920910;28;20096;-73
2021/05/01 20:57:20;;;;;;;8.23;2.83;;;;;;;;;;6920571;28;20033;-73
2021/05/01 21:00:41;;;;;;;8.18;3.40;;;;;;;;;;6919071;28;20072;-73
2021/05/01 21:04:01;;;;;;;7.28;2.95;;;;;;;;;;6920289;28;20033;-73
2021/05/01 21:07:22;;;;;;;6.97;2.60;;;;;;;;;;6919955;28;20083;-73
2021/05/01 21:10:42;;;;;;;8.32;3.08;;;;;;;;;;6905785;28;20072;-73
2021/05/01 21:14:03;;;;;;;7.75;2.45;;;;;;;;;;6915080;28;20030;-73
2021/05/01 21:17:24;;;;;;;6.85;2.83;;;;;;;;;;6897520;28;20480;-73
2021/05/01 21:20:44;;;;;;;9.77;2.90;;;;;;;;;;6901198;28;20032;-73
2021/05/01 21:24:05;;;;;;;7.45;2.38;;;;;;;;;;6919845;28;20038;-73
2021/05/01 21:27:26;;;;;;;7.57;2.53;;;;;;;;;;6918595;28;20058;-73
2021/05/01 21:30:47;;;;;;;6.82;2.55;;;;;;;;;;6915046;28;20116;-73
2021/05/01 21:34:08;;;;;;;7.13;2.30;;;;;;;;;;6918872;28;20030;-73
2021/05/01 21:37:29;;;;;;;5.75;2.50;;;;;;;;;;6919014;28;20472;-73
2021/05/01 21:40:49;;;;;;;7.85;2.35;;;;;;;;;;6916469;28;20575;-73
2021/05/01 21:44:10;;;;;;;4.72;2.00;;;;;;;;;;6919145;28;20112;-74
2021/05/01 21:47:30;;;;;;;7.63;2.30;;;;;;;;;;6918766;28;20076;-73
2021/05/01 21:50:51;;;;;;;7.10;2.63;;;;;;;;;;6908929;28;20129;-73
2021/05/01 21:54:11;;;;;;;6.20;2.20;;;;;;;;;;6916153;28;20038;-73
2021/05/01 21:57:32;;;;;;;7.22;2.60;;;;;;;;;;6914928;28;20030;-73
2021/05/01 22:00:57;;;;;;;6.13;2.80;;;;;;;;;;6925018;28;20045;-74
2021/05/01 22:04:18;;;;;;;5.57;2.47;;;;;;;;;;6909774;28;20053;-74
2021/05/01 22:07:38;;;;;;;9.75;2.80;;;;;;;;;;6912228;28;20054;-74
2021/05/01 22:11:01;;;;;;;6.40;2.55;;;;;;;;;;6913887;28;20044;-73
2021/05/01 22:14:21;;;;;;;4.03;2.03;;;;;;;;;;6902902;28;20034;-74
2021/05/01 22:17:42;;;;;;;7.80;2.08;;;;;;;;;;6907915;28;20259;-73
2021/05/01 22:24:37;;;;;;;4.97;2.20;;;;;;;;;;6917954;28;20038;-73
2021/05/01 22:27:59;;;;;;;6.25;2.30;;;;;;;;;;6918398;28;20108;-73
2021/05/01 22:31:21;;;;;;;7.05;2.50;;;;;;;;;;6919009;28;20046;-74
2021/05/01 22:34:41;;;;;;;6.15;2.40;;;;;;;;;;6918098;28;20048;-73
2021/05/01 22:38:01;;;;;;;6.20;2.28;;;;;;;;;;6917846;28;20379;-73
2021/05/01 22:41:22;;;;;;;6.85;2.10;;;;;;;;;;6917920;28;20026;-73
2021/05/01 22:44:43;;;;;;;4.75;2.20;;;;;;;;;;6918513;28;20041;-73
2021/05/01 22:48:04;;;;;;;3.15;1.95;;;;;;;;;;6917785;28;20037;-73
2021/05/01 22:51:25;;;;;;;5.10;2.20;;;;;;;;;;6918580;28;20108;-73